sensor_id;sensor_type;location;lat;lon;timestamp;pressure;altitude;pressure_sealevel;temperature;humidity
76374;BME280;65197;50.164;8.012;2023-03-16T00:00:50;95871.66;;;-1.17;78.96
76374;BME280;65197;50.164;8.012;2023-03-16T00:03:15;95854.97;;;-1.24;79.80
76374;BME280;65197;50.164;8.012;2023-03-16T00:05:51;95866.63;;;-1.22;79.85
76374;BME280;65197;50.164;8.012;2023-03-16T00:08:17;95849.09;;;-1.30;80.17
76374;BME280;65197;50.164;8.012;2023-03-16T00:10:43;95851.56;;;-1.39;80.30
76374;BME280;65197;50.164;8.012;2023-03-16T00:13:18;95853.25;;;-1.42;80.83
76374;BME280;65197;50.164;8.012;2023-03-16T00:16:01;95843.22;;;-1.45;80.69
76374;BME280;65197;50.164;8.012;2023-03-16T00:18:30;95854.09;;;-1.37;80.92
76374;BME280;65197;50.164;8.012;2023-03-16T00:21:02;95853.28;;;-1.33;80.54
76374;BME280;65197;50.164;8.012;2023-03-16T00:23:28;95838.22;;;-1.45;81.38
76374;BME280;65197;50.164;8.012;2023-03-16T00:28:20;95852.38;;;-1.44;81.07
76374;BME280;65197;50.164;8.012;2023-03-16T00:30:46;95841.56;;;-1.46;81.18
76374;BME280;65197;50.164;8.012;2023-03-16T00:33:11;95849.88;;;-1.49;81.63
76374;BME280;65197;50.164;8.012;2023-03-16T00:35:37;95841.53;;;-1.56;81.64
76374;BME280;65197;50.164;8.012;2023-03-16T00:38:02;95854.84;;;-1.54;82.68
76374;BME280;65197;50.164;8.012;2023-03-16T00:40:28;95849.84;;;-1.57;83.11
76374;BME280;65197;50.164;8.012;2023-03-16T00:42:55;95850.66;;;-1.58;83.46
76374;BME280;65197;50.164;8.012;2023-03-16T00:45:20;95858.19;;;-1.55;83.88
76374;BME280;65197;50.164;8.012;2023-03-16T00:47:47;95869.88;;;-1.57;83.54
76374;BME280;65197;50.164;8.012;2023-03-16T00:50:13;95874.84;;;-1.60;84.35
76374;BME280;65197;50.164;8.012;2023-03-16T00:52:40;95865.66;;;-1.62;84.15
76374;BME280;65197;50.164;8.012;2023-03-16T00:55:06;95871.56;;;-1.46;83.57
76374;BME280;65197;50.164;8.012;2023-03-16T00:57:33;95864.94;;;-1.38;83.97
76374;BME280;65197;50.164;8.012;2023-03-16T00:59:58;95854.06;;;-1.40;83.74
76374;BME280;65197;50.164;8.012;2023-03-16T01:02:24;95867.44;;;-1.31;83.35
76374;BME280;65197;50.164;8.012;2023-03-16T01:04:50;95859.94;;;-1.26;82.99
76374;BME280;65197;50.164;8.012;2023-03-16T01:07:16;95854.94;;;-1.32;82.70
76374;BME280;65197;50.164;8.012;2023-03-16T01:09:42;95840.72;;;-1.41;82.62
76374;BME280;65197;50.164;8.012;2023-03-16T01:12:13;95840.75;;;-1.38;82.53
76374;BME280;65197;50.164;8.012;2023-03-16T01:14:40;95829.84;;;-1.49;83.68
76374;BME280;65197;50.164;8.012;2023-03-16T01:17:07;95848.25;;;-1.33;83.29
76374;BME280;65197;50.164;8.012;2023-03-16T01:19:33;95837.38;;;-1.44;83.46
76374;BME280;65197;50.164;8.012;2023-03-16T01:22:00;95844.91;;;-1.41;84.87
76374;BME280;65197;50.164;8.012;2023-03-16T01:24:26;95848.22;;;-1.39;85.22
76374;BME280;65197;50.164;8.012;2023-03-16T01:26:52;95834.06;;;-1.46;85.94
76374;BME280;65197;50.164;8.012;2023-03-16T01:29:18;95841.56;;;-1.40;85.83
76374;BME280;65197;50.164;8.012;2023-03-16T01:31:44;95840.75;;;-1.38;87.14
76374;BME280;65197;50.164;8.012;2023-03-16T01:34:09;95825.72;;;-1.39;87.62
76374;BME280;65197;50.164;8.012;2023-03-16T01:36:41;95821.56;;;-1.31;89.19
76374;BME280;65197;50.164;8.012;2023-03-16T01:39:06;95816.56;;;-1.34;88.85
76374;BME280;65197;50.164;8.012;2023-03-16T01:41:32;95784.03;;;-1.52;89.40
76374;BME280;65197;50.164;8.012;2023-03-16T01:43:57;95801.53;;;-1.46;90.03
76374;BME280;65197;50.164;8.012;2023-03-16T01:46:28;95805.69;;;-1.45;92.83
76374;BME280;65197;50.164;8.012;2023-03-16T01:49:06;95800.69;;;-1.47;92.78
76374;BME280;65197;50.164;8.012;2023-03-16T01:51:36;95798.19;;;-1.39;94.01
76374;BME280;65197;50.164;8.012;2023-03-16T01:54:08;95789.88;;;-1.47;95.91
76374;BME280;65197;50.164;8.012;2023-03-16T01:56:56;95800.72;;;-1.38;95.32
76374;BME280;65197;50.164;8.012;2023-03-16T01:59:32;95769.84;;;-1.50;97.26
76374;BME280;65197;50.164;8.012;2023-03-16T02:02:00;95794.03;;;-1.36;97.00
76374;BME280;65197;50.164;8.012;2023-03-16T02:04:58;95806.56;;;-1.25;98.08
76374;BME280;65197;50.164;8.012;2023-03-16T02:07:27;95806.56;;;-1.31;98.09
76374;BME280;65197;50.164;8.012;2023-03-16T02:09:56;95784.84;;;-1.50;99.17
76374;BME280;65197;50.164;8.012;2023-03-16T02:12:23;95785.69;;;-1.50;99.54
76374;BME280;65197;50.164;8.012;2023-03-16T02:14:49;95800.72;;;-1.35;100.00
76374;BME280;65197;50.164;8.012;2023-03-16T02:17:18;95786.56;;;-1.37;100.00
76374;BME280;65197;50.164;8.012;2023-03-16T02:22:19;95767.38;;;-1.34;100.00
76374;BME280;65197;50.164;8.012;2023-03-16T02:24:49;95770.72;;;-1.32;100.00
76374;BME280;65197;50.164;8.012;2023-03-16T02:30:19;95768.22;;;-1.32;100.00
76374;BME280;65197;50.164;8.012;2023-03-16T02:32:47;95764.88;;;-1.32;100.00
76374;BME280;65197;50.164;8.012;2023-03-16T02:35:13;95759.03;;;-1.31;100.00
76374;BME280;65197;50.164;8.012;2023-03-16T02:37:39;95766.53;;;-1.25;100.00
76374;BME280;65197;50.164;8.012;2023-03-16T02:42:53;95751.53;;;-1.25;100.00
76374;BME280;65197;50.164;8.012;2023-03-16T02:45:22;95724.00;;;-1.39;100.00
76374;BME280;65197;50.164;8.012;2023-03-16T02:47:51;95743.22;;;-1.33;100.00
76374;BME280;65197;50.164;8.012;2023-03-16T02:50:18;95737.34;;;-1.44;100.00
76374;BME280;65197;50.164;8.012;2023-03-16T02:52:43;95745.69;;;-1.36;100.00
76374;BME280;65197;50.164;8.012;2023-03-16T02:55:09;95731.50;;;-1.46;100.00
76374;BME280;65197;50.164;8.012;2023-03-16T02:57:35;95753.22;;;-1.33;100.00
76374;BME280;65197;50.164;8.012;2023-03-16T03:00:00;95739.88;;;-1.38;100.00
76374;BME280;65197;50.164;8.012;2023-03-16T03:02:26;95747.38;;;-1.29;100.00
76374;BME280;65197;50.164;8.012;2023-03-16T03:04:51;95750.72;;;-1.29;100.00
76374;BME280;65197;50.164;8.012;2023-03-16T03:07:19;95716.50;;;-1.43;100.00
76374;BME280;65197;50.164;8.012;2023-03-16T03:09:45;95747.38;;;-1.38;100.00
76374;BME280;65197;50.164;8.012;2023-03-16T03:12:11;95749.00;;;-1.39;100.00
76374;BME280;65197;50.164;8.012;2023-03-16T03:14:37;95748.22;;;-1.33;100.00
76374;BME280;65197;50.164;8.012;2023-03-16T03:17:07;95746.53;;;-1.40;100.00
76374;BME280;65197;50.164;8.012;2023-03-16T03:19:33;95747.38;;;-1.38;100.00
76374;BME280;65197;50.164;8.012;2023-03-16T03:22:00;95734.84;;;-1.44;100.00
76374;BME280;65197;50.164;8.012;2023-03-16T03:24:28;95743.19;;;-1.45;100.00
76374;BME280;65197;50.164;8.012;2023-03-16T03:26:53;95734.00;;;-1.60;100.00
76374;BME280;65197;50.164;8.012;2023-03-16T03:29:19;95747.31;;;-1.61;100.00
76374;BME280;65197;50.164;8.012;2023-03-16T03:31:44;95744.81;;;-1.66;100.00
76374;BME280;65197;50.164;8.012;2023-03-16T03:34:10;95728.13;;;-1.64;100.00
76374;BME280;65197;50.164;8.012;2023-03-16T03:36:35;95730.66;;;-1.65;100.00
76374;BME280;65197;50.164;8.012;2023-03-16T03:39:01;95738.13;;;-1.70;100.00
76374;BME280;65197;50.164;8.012;2023-03-16T03:41:29;95739.78;;;-1.69;100.00
76374;BME280;65197;50.164;8.012;2023-03-16T03:43:55;95745.59;;;-1.71;100.00
76374;BME280;65197;50.164;8.012;2023-03-16T03:46:21;95722.25;;;-1.81;100.00
76374;BME280;65197;50.164;8.012;2023-03-16T03:48:46;95737.28;;;-1.72;100.00
76374;BME280;65197;50.164;8.012;2023-03-16T03:51:11;95735.59;;;-1.77;100.00
76374;BME280;65197;50.164;8.012;2023-03-16T03:53:37;95728.94;;;-1.80;100.00
76374;BME280;65197;50.164;8.012;2023-03-16T03:56:02;95708.94;;;-1.85;100.00
76374;BME280;65197;50.164;8.012;2023-03-16T03:58:28;95720.59;;;-1.82;100.00
76374;BME280;65197;50.164;8.012;2023-03-16T04:00:53;95716.41;;;-1.86;100.00
76374;BME280;65197;50.164;8.012;2023-03-16T04:03:18;95733.06;;;-1.85;100.00
76374;BME280;65197;50.164;8.012;2023-03-16T04:05:44;95728.91;;;-1.91;100.00
76374;BME280;65197;50.164;8.012;2023-03-16T04:08:09;95721.38;;;-1.95;100.00
76374;BME280;65197;50.164;8.012;2023-03-16T04:10:35;95732.22;;;-1.92;100.00
76374;BME280;65197;50.164;8.012;2023-03-16T04:13:01;95723.91;;;-1.94;100.00
76374;BME280;65197;50.164;8.012;2023-03-16T04:15:26;95709.72;;;-2.02;100.00
76374;BME280;65197;50.164;8.012;2023-03-16T04:17:52;95708.88;;;-2.06;100.00
76374;BME280;65197;50.164;8.012;2023-03-16T04:20:18;95718.88;;;-2.00;100.00
76374;BME280;65197;50.164;8.012;2023-03-16T04:22:47;95721.38;;;-2.01;100.00
76374;BME280;65197;50.164;8.012;2023-03-16T04:25:14;95708.84;;;-2.11;100.00
76374;BME280;65197;50.164;8.012;2023-03-16T04:27:40;95714.69;;;-2.12;100.00
76374;BME280;65197;50.164;8.012;2023-03-16T04:30:09;95708.00;;;-2.13;100.00
76374;BME280;65197;50.164;8.012;2023-03-16T04:32:35;95717.97;;;-2.13;100.00
76374;BME280;65197;50.164;8.012;2023-03-16T04:35:01;95711.34;;;-2.17;100.00
76374;BME280;65197;50.164;8.012;2023-03-16T04:37:26;95717.97;;;-2.13;100.00
76374;BME280;65197;50.164;8.012;2023-03-16T04:39:52;95714.66;;;-2.21;100.00
76374;BME280;65197;50.164;8.012;2023-03-16T04:42:17;95722.13;;;-2.21;100.00
76374;BME280;65197;50.164;8.012;2023-03-16T04:44:42;95707.09;;;-2.27;100.00
76374;BME280;65197;50.164;8.012;2023-03-16T04:47:12;95722.97;;;-2.16;100.00
76374;BME280;65197;50.164;8.012;2023-03-16T04:49:37;95721.34;;;-2.11;100.00
76374;BME280;65197;50.164;8.012;2023-03-16T04:52:03;95716.34;;;-2.11;100.00
76374;BME280;65197;50.164;8.012;2023-03-16T04:54:29;95701.31;;;-2.20;100.00
76374;BME280;65197;50.164;8.012;2023-03-16T04:56:55;95707.19;;;-2.06;100.00
76374;BME280;65197;50.164;8.012;2023-03-16T04:59:20;95705.56;;;-1.96;100.00
76374;BME280;65197;50.164;8.012;2023-03-16T05:01:47;95693.88;;;-2.06;100.00
76374;BME280;65197;50.164;8.012;2023-03-16T05:04:12;95678.88;;;-2.12;100.00
76374;BME280;65197;50.164;8.012;2023-03-16T05:06:38;95703.03;;;-2.00;100.00
76374;BME280;65197;50.164;8.012;2023-03-16T05:09:03;95699.72;;;-1.99;100.00
76374;BME280;65197;50.164;8.012;2023-03-16T05:11:30;95689.72;;;-2.02;100.00
76374;BME280;65197;50.164;8.012;2023-03-16T05:13:55;95672.22;;;-2.07;100.00
76374;BME280;65197;50.164;8.012;2023-03-16T05:16:21;95683.06;;;-1.96;100.00
76374;BME280;65197;50.164;8.012;2023-03-16T05:18:46;95678.06;;;-1.97;100.00
76374;BME280;65197;50.164;8.012;2023-03-16T05:21:12;95677.25;;;-1.93;100.00
76374;BME280;65197;50.164;8.012;2023-03-16T05:23:37;95675.59;;;-1.93;100.00
76374;BME280;65197;50.164;8.012;2023-03-16T05:26:02;95683.09;;;-1.87;100.00
76374;BME280;65197;50.164;8.012;2023-03-16T05:28:28;95672.28;;;-1.89;100.00
76374;BME280;65197;50.164;8.012;2023-03-16T05:30:54;95665.59;;;-1.88;100.00
76374;BME280;65197;50.164;8.012;2023-03-16T05:33:20;95667.25;;;-1.87;100.00
76374;BME280;65197;50.164;8.012;2023-03-16T05:35:46;95668.09;;;-1.88;100.00
76374;BME280;65197;50.164;8.012;2023-03-16T05:38:11;95677.25;;;-1.81;100.00
76374;BME280;65197;50.164;8.012;2023-03-16T05:40:37;95676.47;;;-1.80;100.00
76374;BME280;65197;50.164;8.012;2023-03-16T05:43:03;95667.28;;;-1.80;100.00
76374;BME280;65197;50.164;8.012;2023-03-16T05:45:29;95668.13;;;-1.67;100.00
76374;BME280;65197;50.164;8.012;2023-03-16T05:47:55;95674.81;;;-1.41;100.00
76374;BME280;65197;50.164;8.012;2023-03-16T05:50:21;95670.66;;;-1.30;100.00
76374;BME280;65197;50.164;8.012;2023-03-16T05:52:46;95654.81;;;-1.14;100.00
76374;BME280;65197;50.164;8.012;2023-03-16T05:55:13;95669.81;;;-0.88;99.56
76374;BME280;65197;50.164;8.012;2023-03-16T05:57:39;95666.44;;;-0.88;99.12
76374;BME280;65197;50.164;8.012;2023-03-16T06:00:06;95664.81;;;-1.12;99.68
76374;BME280;65197;50.164;8.012;2023-03-16T06:02:45;95668.16;;;-1.24;100.00
76374;BME280;65197;50.164;8.012;2023-03-16T06:05:11;95668.13;;;-1.21;100.00
76374;BME280;65197;50.164;8.012;2023-03-16T06:07:37;95671.44;;;-0.85;99.40
76374;BME280;65197;50.164;8.012;2023-03-16T06:10:03;95668.91;;;-0.59;97.54
76374;BME280;65197;50.164;8.012;2023-03-16T06:12:29;95673.00;;;-0.38;94.37
76374;BME280;65197;50.164;8.012;2023-03-16T06:14:54;95668.84;;;-0.48;95.24
76374;BME280;65197;50.164;8.012;2023-03-16T06:17:20;95665.53;;;-0.54;95.19
76374;BME280;65197;50.164;8.012;2023-03-16T06:19:45;95674.66;;;-0.37;94.42
76374;BME280;65197;50.164;8.012;2023-03-16T06:22:11;95664.59;;;-0.28;93.35
76374;BME280;65197;50.164;8.012;2023-03-16T06:24:36;95666.31;;;-0.36;93.24
76374;BME280;65197;50.164;8.012;2023-03-16T06:27:02;95672.16;;;-0.42;94.31
76374;BME280;65197;50.164;8.012;2023-03-16T06:29:27;95663.06;;;-0.75;95.47
76374;BME280;65197;50.164;8.012;2023-03-16T06:31:53;95673.09;;;-0.72;96.03
76374;BME280;65197;50.164;8.012;2023-03-16T06:34:19;95681.44;;;-0.64;95.53
76374;BME280;65197;50.164;8.012;2023-03-16T06:36:44;95670.56;;;-0.70;95.74
76374;BME280;65197;50.164;8.012;2023-03-16T06:39:10;95683.09;;;-0.67;96.00
76374;BME280;65197;50.164;8.012;2023-03-16T06:41:35;95674.75;;;-0.74;95.50
76374;BME280;65197;50.164;8.012;2023-03-16T06:44:01;95689.75;;;-0.69;96.47
76374;BME280;65197;50.164;8.012;2023-03-16T06:46:27;95683.94;;;-0.76;95.76
76374;BME280;65197;50.164;8.012;2023-03-16T06:48:52;95684.75;;;-0.65;95.74
76374;BME280;65197;50.164;8.012;2023-03-16T06:51:17;95673.06;;;-0.63;95.01
76374;BME280;65197;50.164;8.012;2023-03-16T06:53:43;95683.88;;;-0.52;94.83
76374;BME280;65197;50.164;8.012;2023-03-16T06:56:08;95671.34;;;-0.44;93.86
76374;BME280;65197;50.164;8.012;2023-03-16T06:58:34;95664.69;;;-0.53;93.95
76374;BME280;65197;50.164;8.012;2023-03-16T07:01:01;95682.06;;;-0.11;92.60
76374;BME280;65197;50.164;8.012;2023-03-16T07:03:27;95675.44;;;1.05;87.17
76374;BME280;65197;50.164;8.012;2023-03-16T07:05:53;95665.88;;;1.42;82.42
76374;BME280;65197;50.164;8.012;2023-03-16T07:08:18;95674.16;;;1.51;81.86
76374;BME280;65197;50.164;8.012;2023-03-16T07:10:44;95673.63;;;1.22;82.44
76374;BME280;65197;50.164;8.012;2023-03-16T07:13:09;95693.25;;;0.77;86.14
76374;BME280;65197;50.164;8.012;2023-03-16T07:15:34;95676.78;;;0.36;87.13
76374;BME280;65197;50.164;8.012;2023-03-16T07:18:00;95667.56;;;0.44;86.94
76374;BME280;65197;50.164;8.012;2023-03-16T07:20:25;95680.41;;;1.11;84.82
76374;BME280;65197;50.164;8.012;2023-03-16T07:22:52;95678.56;;;1.31;84.05
76374;BME280;65197;50.164;8.012;2023-03-16T07:25:18;95683.69;;;1.96;80.30
76374;BME280;65197;50.164;8.012;2023-03-16T07:27:43;95681.44;;;1.74;80.97
76374;BME280;65197;50.164;8.012;2023-03-16T07:30:11;95683.69;;;1.97;80.37
76374;BME280;65197;50.164;8.012;2023-03-16T07:32:39;95676.75;;;2.15;78.43
76374;BME280;65197;50.164;8.012;2023-03-16T07:35:06;95679.00;;;2.36;78.50
76374;BME280;65197;50.164;8.012;2023-03-16T07:37:31;95676.16;;;2.58;77.01
76374;BME280;65197;50.164;8.012;2023-03-16T07:39:59;95666.97;;;2.53;76.94
76374;BME280;65197;50.164;8.012;2023-03-16T07:42:24;95665.06;;;2.68;76.48
76374;BME280;65197;50.164;8.012;2023-03-16T07:44:50;95669.78;;;2.89;76.07
76374;BME280;65197;50.164;8.012;2023-03-16T07:47:16;95660.81;;;3.24;73.51
76374;BME280;65197;50.164;8.012;2023-03-16T07:49:41;95690.28;;;3.67;72.86
76374;BME280;65197;50.164;8.012;2023-03-16T07:52:09;95684.06;;;3.83;72.25
76374;BME280;65197;50.164;8.012;2023-03-16T07:54:34;95682.69;;;4.12;68.62
76374;BME280;65197;50.164;8.012;2023-03-16T07:57:00;95682.31;;;4.28;69.63
76374;BME280;65197;50.164;8.012;2023-03-16T07:59:25;95678.88;;;4.70;67.69
76374;BME280;65197;50.164;8.012;2023-03-16T08:01:51;95683.34;;;4.20;69.85
76374;BME280;65197;50.164;8.012;2023-03-16T08:04:16;95677.19;;;3.91;70.82
76374;BME280;65197;50.164;8.012;2023-03-16T08:06:42;95661.19;;;3.92;72.07
76374;BME280;65197;50.164;8.012;2023-03-16T08:09:07;95670.59;;;4.26;69.99
76374;BME280;65197;50.164;8.012;2023-03-16T08:11:33;95681.50;;;4.28;70.75
76374;BME280;65197;50.164;8.012;2023-03-16T08:13:58;95677.16;;;4.72;68.08
76374;BME280;65197;50.164;8.012;2023-03-16T08:16:24;95669.78;;;5.00;68.89
76374;BME280;65197;50.164;8.012;2023-03-16T08:18:51;95661.78;;;4.45;68.62
76374;BME280;65197;50.164;8.012;2023-03-16T08:21:17;95668.72;;;3.95;71.36
76374;BME280;65197;50.164;8.012;2023-03-16T08:23:43;95678.44;;;4.14;71.54
76374;BME280;65197;50.164;8.012;2023-03-16T08:26:14;95672.59;;;4.50;70.53
76374;BME280;65197;50.164;8.012;2023-03-16T08:28:41;95673.47;;;4.09;70.38
76374;BME280;65197;50.164;8.012;2023-03-16T08:31:06;95673.19;;;4.23;71.60
76374;BME280;65197;50.164;8.012;2023-03-16T08:33:33;95680.91;;;4.17;70.25
76374;BME280;65197;50.164;8.012;2023-03-16T08:36:00;95674.06;;;3.80;73.81
76374;BME280;65197;50.164;8.012;2023-03-16T08:38:26;95672.72;;;3.16;73.91
76374;BME280;65197;50.164;8.012;2023-03-16T08:40:51;95662.88;;;3.02;76.10
76374;BME280;65197;50.164;8.012;2023-03-16T08:43:17;95678.06;;;2.97;76.14
76374;BME280;65197;50.164;8.012;2023-03-16T08:45:46;95681.59;;;2.87;77.54
76374;BME280;65197;50.164;8.012;2023-03-16T08:48:12;95687.19;;;3.03;79.15
76374;BME280;65197;50.164;8.012;2023-03-16T08:50:42;95678.06;;;2.97;77.71
76374;BME280;65197;50.164;8.012;2023-03-16T08:53:08;95674.88;;;2.88;77.28
76374;BME280;65197;50.164;8.012;2023-03-16T08:55:34;95684.13;;;2.86;78.41
76374;BME280;65197;50.164;8.012;2023-03-16T08:58:01;95673.28;;;2.82;78.12
76374;BME280;65197;50.164;8.012;2023-03-16T09:00:27;95658.63;;;2.51;79.78
76374;BME280;65197;50.164;8.012;2023-03-16T09:02:52;95669.44;;;2.60;80.14
76374;BME280;65197;50.164;8.012;2023-03-16T09:05:19;95673.72;;;2.51;83.63
76374;BME280;65197;50.164;8.012;2023-03-16T09:07:45;95679.38;;;2.66;81.69
76374;BME280;65197;50.164;8.012;2023-03-16T09:10:11;95672.50;;;2.77;80.70
76374;BME280;65197;50.164;8.012;2023-03-16T09:12:38;95675.59;;;2.96;81.29
76374;BME280;65197;50.164;8.012;2023-03-16T09:15:05;95644.19;;;3.14;78.13
76374;BME280;65197;50.164;8.012;2023-03-16T09:17:31;95654.53;;;3.88;76.92
76374;BME280;65197;50.164;8.012;2023-03-16T09:19:56;95658.00;;;4.24;75.08
76374;BME280;65197;50.164;8.012;2023-03-16T09:22:21;95635.06;;;4.35;74.40
76374;BME280;65197;50.164;8.012;2023-03-16T09:24:47;95667.91;;;4.33;75.66
76374;BME280;65197;50.164;8.012;2023-03-16T09:27:14;95657.34;;;4.55;74.12
76374;BME280;65197;50.164;8.012;2023-03-16T09:29:40;95658.75;;;4.67;74.68
76374;BME280;65197;50.164;8.012;2023-03-16T09:32:07;95647.69;;;5.06;73.38
76374;BME280;65197;50.164;8.012;2023-03-16T09:34:34;95644.81;;;5.53;69.72
76374;BME280;65197;50.164;8.012;2023-03-16T09:37:00;95647.47;;;6.10;67.90
76374;BME280;65197;50.164;8.012;2023-03-16T09:39:25;95664.03;;;5.58;65.57
76374;BME280;65197;50.164;8.012;2023-03-16T09:42:06;95651.81;;;6.35;67.33
76374;BME280;65197;50.164;8.012;2023-03-16T09:47:32;95657.91;;;6.28;65.22
76374;BME280;65197;50.164;8.012;2023-03-16T09:50:04;95642.06;;;6.77;65.10
76374;BME280;65197;50.164;8.012;2023-03-16T09:52:54;95652.66;;;6.90;62.95
76374;BME280;65197;50.164;8.012;2023-03-16T09:55:31;95659.38;;;7.18;65.83
76374;BME280;65197;50.164;8.012;2023-03-16T09:57:58;95646.78;;;7.14;65.94
76374;BME280;65197;50.164;8.012;2023-03-16T10:00:26;95627.59;;;7.32;63.82
76374;BME280;65197;50.164;8.012;2023-03-16T10:05:39;95652.44;;;7.23;61.98
76374;BME280;65197;50.164;8.012;2023-03-16T10:08:20;95655.44;;;7.34;64.18
76374;BME280;65197;50.164;8.012;2023-03-16T10:16:06;95659.94;;;7.99;62.29
76374;BME280;65197;50.164;8.012;2023-03-16T10:18:42;95659.41;;;7.91;62.38
76374;BME280;65197;50.164;8.012;2023-03-16T10:21:15;95658.59;;;7.65;61.85
76374;BME280;65197;50.164;8.012;2023-03-16T10:23:44;95631.94;;;7.29;59.69
76374;BME280;65197;50.164;8.012;2023-03-16T10:26:17;95649.75;;;7.27;64.95
76374;BME280;65197;50.164;8.012;2023-03-16T10:28:45;95644.25;;;7.14;59.81
76374;BME280;65197;50.164;8.012;2023-03-16T10:31:11;95659.06;;;7.27;63.13
76374;BME280;65197;50.164;8.012;2023-03-16T10:33:37;95661.41;;;7.06;62.89
76374;BME280;65197;50.164;8.012;2023-03-16T10:36:14;95648.34;;;7.19;61.09
76374;BME280;65197;50.164;8.012;2023-03-16T10:38:53;95653.03;;;7.04;61.53
76374;BME280;65197;50.164;8.012;2023-03-16T10:41:23;95650.28;;;6.84;64.59
76374;BME280;65197;50.164;8.012;2023-03-16T10:44:03;95649.47;;;6.83;62.55
76374;BME280;65197;50.164;8.012;2023-03-16T10:46:49;95649.53;;;7.33;61.21
76374;BME280;65197;50.164;8.012;2023-03-16T10:49:28;95646.63;;;6.93;64.44
76374;BME280;65197;50.164;8.012;2023-03-16T10:52:05;95656.47;;;7.03;61.55
76374;BME280;65197;50.164;8.012;2023-03-16T10:54:34;95644.97;;;7.43;61.62
76374;BME280;65197;50.164;8.012;2023-03-16T10:59:47;95652.50;;;7.21;62.48
76374;BME280;65197;50.164;8.012;2023-03-16T11:02:19;95653.44;;;6.66;63.26
76374;BME280;65197;50.164;8.012;2023-03-16T11:04:47;95648.41;;;6.36;67.32
76374;BME280;65197;50.164;8.012;2023-03-16T11:07:18;95650.50;;;6.78;68.05
76374;BME280;65197;50.164;8.012;2023-03-16T11:09:45;95639.56;;;6.49;62.87
76374;BME280;65197;50.164;8.012;2023-03-16T11:12:26;95637.97;;;6.17;65.09
76374;BME280;65197;50.164;8.012;2023-03-16T11:15:00;95633.00;;;6.14;67.68
76374;BME280;65197;50.164;8.012;2023-03-16T11:17:40;95638.06;;;6.42;68.78
76374;BME280;65197;50.164;8.012;2023-03-16T11:20:22;95642.50;;;6.07;66.04
76374;BME280;65197;50.164;8.012;2023-03-16T11:22:50;95642.50;;;6.07;68.45
76374;BME280;65197;50.164;8.012;2023-03-16T11:25:26;95643.00;;;6.19;72.03
76374;BME280;65197;50.164;8.012;2023-03-16T11:28:01;95643.13;;;6.42;66.12
76374;BME280;65197;50.164;8.012;2023-03-16T11:33:14;95613.88;;;6.33;66.67
76374;BME280;65197;50.164;8.012;2023-03-16T11:39:26;95628.88;;;6.11;67.58
76374;BME280;65197;50.164;8.012;2023-03-16T11:44:54;95602.56;;;5.86;66.49
76374;BME280;65197;50.164;8.012;2023-03-16T11:47:35;95605.56;;;6.28;70.63
76374;BME280;65197;50.164;8.012;2023-03-16T11:53:36;95603.69;;;6.35;66.10
76374;BME280;65197;50.164;8.012;2023-03-16T12:01:16;95599.72;;;6.81;65.75
76374;BME280;65197;50.164;8.012;2023-03-16T12:03:56;95608.28;;;6.77;67.67
76374;BME280;65197;50.164;8.012;2023-03-16T12:09:11;95585.28;;;7.33;61.48
76374;BME280;65197;50.164;8.012;2023-03-16T12:14:46;95605.72;;;7.53;60.10
76374;BME280;65197;50.164;8.012;2023-03-16T12:17:19;95585.84;;;7.41;63.93
76374;BME280;65197;50.164;8.012;2023-03-16T12:19:54;95582.97;;;7.27;62.29
76374;BME280;65197;50.164;8.012;2023-03-16T12:22:36;95558.13;;;7.11;62.56
76374;BME280;65197;50.164;8.012;2023-03-16T12:25:21;95574.66;;;7.47;65.50
76374;BME280;65197;50.164;8.012;2023-03-16T12:27:51;95566.22;;;7.70;60.25
76374;BME280;65197;50.164;8.012;2023-03-16T12:33:16;95549.44;;;7.65;60.35
76374;BME280;65197;50.164;8.012;2023-03-16T12:35:49;95557.97;;;7.64;63.89
76374;BME280;65197;50.164;8.012;2023-03-16T12:41:06;95539.69;;;7.06;66.14
76374;BME280;65197;50.164;8.012;2023-03-16T12:49:14;95544.31;;;8.56;60.42
76374;BME280;65197;50.164;8.012;2023-03-16T12:51:42;95531.63;;;8.77;58.45
76374;BME280;65197;50.164;8.012;2023-03-16T12:54:22;95547.81;;;8.10;56.61
76374;BME280;65197;50.164;8.012;2023-03-16T12:56:50;95542.41;;;8.17;60.57
76374;BME280;65197;50.164;8.012;2023-03-16T12:59:22;95532.38;;;7.93;58.77
76374;BME280;65197;50.164;8.012;2023-03-16T13:01:56;95537.34;;;8.17;58.59
76374;BME280;65197;50.164;8.012;2023-03-16T13:04:30;95529.34;;;8.27;59.16
76374;BME280;65197;50.164;8.012;2023-03-16T13:07:03;95518.91;;;8.12;57.48
76374;BME280;65197;50.164;8.012;2023-03-16T13:09:35;95524.69;;;7.94;61.30
76374;BME280;65197;50.164;8.012;2023-03-16T13:12:06;95522.34;;;8.11;58.71
76374;BME280;65197;50.164;8.012;2023-03-16T13:14:42;95527.28;;;8.38;59.72
76374;BME280;65197;50.164;8.012;2023-03-16T13:19:40;95501.25;;;7.42;58.05
76374;BME280;65197;50.164;8.012;2023-03-16T13:27:38;95512.28;;;6.68;58.49
76374;BME280;65197;50.164;8.012;2023-03-16T13:30:19;95496.13;;;6.45;61.31
76374;BME280;65197;50.164;8.012;2023-03-16T13:32:45;95512.13;;;6.47;61.53
76374;BME280;65197;50.164;8.012;2023-03-16T13:35:16;95516.69;;;6.36;60.54
76374;BME280;65197;50.164;8.012;2023-03-16T13:37:42;95501.13;;;6.48;60.50
76374;BME280;65197;50.164;8.012;2023-03-16T13:40:21;95510.81;;;6.60;61.36
76374;BME280;65197;50.164;8.012;2023-03-16T13:42:48;95500.50;;;6.67;63.01
76374;BME280;65197;50.164;8.012;2023-03-16T13:45:35;95505.97;;;6.54;60.37
76374;BME280;65197;50.164;8.012;2023-03-16T13:48:01;95504.31;;;6.53;62.38
76374;BME280;65197;50.164;8.012;2023-03-16T13:50:31;95497.69;;;6.49;63.56
76374;BME280;65197;50.164;8.012;2023-03-16T13:52:59;95480.53;;;6.57;64.63
76374;BME280;65197;50.164;8.012;2023-03-16T13:55:33;95487.16;;;6.61;61.76
76374;BME280;65197;50.164;8.012;2023-03-16T13:58:01;95483.75;;;6.62;64.96
76374;BME280;65197;50.164;8.012;2023-03-16T14:00:31;95443.78;;;6.46;63.84
76374;BME280;65197;50.164;8.012;2023-03-16T14:02:59;95477.34;;;6.52;62.17
76374;BME280;65197;50.164;8.012;2023-03-16T14:05:32;95479.81;;;6.54;62.12
76374;BME280;65197;50.164;8.012;2023-03-16T14:07:59;95475.56;;;6.29;61.68
76374;BME280;65197;50.164;8.012;2023-03-16T14:10:31;95469.38;;;6.38;62.75
76374;BME280;65197;50.164;8.012;2023-03-16T14:16:02;95456.88;;;6.32;63.26
76374;BME280;65197;50.164;8.012;2023-03-16T14:18:35;95461.09;;;6.83;61.84